Time;durP1;ratioP1;P1;durP2;ratioP2;P2;SDS_P1;SDS_P2;PMS_P1;PMS_P2;Temp;Humidity;BMP_temperature;BMP_pressure;BME280_temperature;BME280_humidity;BME280_pressure;Samples;Min_cycle;Max_cycle;Signal;HPM_P1;HPM_P2
2022/02/24 00:00:19;;;;;;;9.48;7.65;;;;;;;17.82;55.07;99989.16;1702821;83;21065;-62
2022/02/24 00:02:45;;;;;;;8.30;7.17;;;;;;;17.79;55.10;99992.29;1700138;83;21038;-64
2022/02/24 00:05:12;;;;;;;9.00;7.42;;;;;;;17.74;55.08;99992.61;1695054;83;21529;-63
2022/02/24 00:07:39;;;;;;;8.63;7.45;;;;;;;17.70;55.11;99992.19;1725355;82;21077;-63
2022/02/24 00:10:09;;;;;;;8.98;7.50;;;;;;;17.65;55.12;99994.17;1740182;81;22312;-62
2022/02/24 00:12:37;;;;;;;8.98;7.22;;;;;;;17.61;55.14;99995.59;1689093;83;21146;-63
2022/02/24 00:15:07;;;;;;;9.98;7.55;;;;;;;17.57;55.14;99991.67;1684599;84;21585;-63
2022/02/24 00:17:34;;;;;;;8.33;7.40;;;;;;;17.54;55.15;99999.31;1690884;83;21053;-63
2022/02/24 00:20:01;;;;;;;8.18;7.15;;;;;;;17.49;55.17;99999.42;1653228;84;21023;-63
2022/02/24 00:22:31;;;;;;;8.43;7.37;;;;;;;17.45;55.17;99994.16;1684598;84;22249;-63
2022/02/24 00:24:58;;;;;;;9.48;7.10;;;;;;;17.42;55.17;100000.46;1737846;82;21038;-64
2022/02/24 00:27:26;;;;;;;8.68;7.20;;;;;;;17.37;55.19;99998.41;1723493;82;21030;-63
2022/02/24 00:29:53;;;;;;;9.05;7.80;;;;;;;17.35;55.20;100001.00;1760026;80;21469;-62
2022/02/24 00:32:20;;;;;;;8.55;7.08;;;;;;;17.31;55.21;99999.23;1747227;80;21038;-63
2022/02/24 00:34:47;;;;;;;8.28;6.95;;;;;;;17.27;55.24;100000.16;1677836;84;21135;-63
2022/02/24 00:37:15;;;;;;;9.18;7.08;;;;;;;17.24;55.24;100006.45;1681639;83;21038;-63
2022/02/24 00:39:43;;;;;;;8.65;7.35;;;;;;;17.20;55.24;99998.50;1729110;82;21044;-63
2022/02/24 00:42:10;;;;;;;8.88;6.97;;;;;;;17.18;55.28;100005.94;1721744;82;21549;-63
2022/02/24 00:44:36;;;;;;;9.38;7.17;;;;;;;17.13;55.29;100000.34;1725765;82;21090;-63
2022/02/24 00:47:03;;;;;;;7.58;6.80;;;;;;;17.10;55.33;100003.75;1735705;80;21750;-65
2022/02/24 00:49:31;;;;;;;7.35;6.58;;;;;;;17.07;55.34;100004.17;1731444;82;20991;-62
2022/02/24 00:51:57;;;;;;;6.95;6.25;;;;;;;17.04;55.35;100011.28;1717187;82;21038;-63
2022/02/24 00:54:24;;;;;;;8.10;6.12;;;;;;;17.01;55.36;100012.20;1735764;80;21029;-62
2022/02/24 00:56:50;;;;;;;8.05;6.83;;;;;;;16.98;55.38;100009.42;1740682;82;20998;-63
2022/02/24 00:59:17;;;;;;;7.90;5.92;;;;;;;16.96;55.36;100016.00;1707011;83;21134;-63
2022/02/24 01:01:45;;;;;;;8.48;6.17;;;;;;;16.93;55.38;100021.27;1730406;81;21085;-63
2022/02/24 01:04:11;;;;;;;7.37;6.37;;;;;;;16.90;55.40;100023.85;1693693;82;21050;-63
2022/02/24 01:06:38;;;;;;;7.42;6.58;;;;;;;16.88;55.41;100027.75;1735721;80;21037;-63
2022/02/24 01:09:05;;;;;;;8.35;6.12;;;;;;;16.85;55.45;100030.84;1688178;83;20990;-63
2022/02/24 01:11:32;;;;;;;7.83;6.85;;;;;;;16.81;55.46;100023.68;1734727;82;21151;-63
2022/02/24 01:15:59;;;;;;;7.92;6.85;;;;;;;16.81;55.51;100024.20;1859886;76;28007;-65
2022/02/24 01:18:28;;;;;;;8.18;6.50;;;;;;;16.74;55.49;100024.69;1805854;78;21014;-64
2022/02/24 01:20:54;;;;;;;8.30;6.47;;;;;;;16.70;55.52;100029.63;1749068;81;21143;-63
2022/02/24 01:23:20;;;;;;;7.30;6.15;;;;;;;16.68;55.53;100025.80;1751255;80;20923;-63
2022/02/24 01:25:47;;;;;;;6.35;5.50;;;;;;;16.66;55.54;100025.70;1758877;81;21511;-63
2022/02/24 01:28:13;;;;;;;7.53;6.17;;;;;;;16.65;55.53;100036.09;1752074;81;21015;-63
2022/02/24 01:30:39;;;;;;;6.85;6.15;;;;;;;16.62;55.56;100032.49;1749311;81;21050;-63
2022/02/24 01:33:06;;;;;;;8.28;6.33;;;;;;;16.58;55.59;100034.74;1765457;81;21479;-63
2022/02/24 01:35:33;;;;;;;7.45;6.62;;;;;;;16.57;55.59;100039.78;1766345;81;21019;-63
2022/02/24 01:37:59;;;;;;;6.55;5.58;;;;;;;16.53;55.62;100033.16;1787962;80;21127;-62
2022/02/24 01:40:25;;;;;;;7.53;5.55;;;;;;;16.51;55.63;100033.87;1777893;79;21039;-62
2022/02/24 01:42:52;;;;;;;6.70;5.80;;;;;;;16.49;55.64;100030.57;1771959;79;21045;-63
2022/02/24 01:45:19;;;;;;;7.08;6.12;;;;;;;16.46;55.65;100034.48;1757366;79;21254;-64
2022/02/24 01:47:45;;;;;;;5.87;5.28;;;;;;;16.45;55.66;100045.41;1772522;80;21029;-62
2022/02/24 01:50:12;;;;;;;7.47;6.00;;;;;;;16.43;55.68;100043.44;1775979;80;21009;-62
2022/02/24 01:52:39;;;;;;;7.22;6.00;;;;;;;16.40;55.69;100045.17;1781773;79;21061;-62
2022/02/24 01:55:07;;;;;;;6.65;5.75;;;;;;;16.38;55.71;100048.56;1778546;79;21034;-62
2022/02/24 01:57:34;;;;;;;7.55;6.20;;;;;;;16.36;55.71;100046.59;1775239;79;21537;-63
2022/02/24 02:00:00;;;;;;;7.40;6.42;;;;;;;16.34;55.74;100052.18;1776677;80;20998;-63
2022/02/24 02:02:27;;;;;;;6.97;5.90;;;;;;;16.31;55.75;100057.92;1761446;80;21081;-62
2022/02/24 02:04:53;;;;;;;7.80;6.25;;;;;;;16.29;55.76;100053.28;1767465;80;21549;-63
2022/02/24 02:07:21;;;;;;;7.20;6.17;;;;;;;16.27;55.78;100054.81;1766275;80;21129;-62
2022/02/24 02:09:48;;;;;;;8.88;5.80;;;;;;;16.25;55.78;100057.37;1771339;79;21136;-63
2022/02/24 02:12:19;;;;;;;6.33;5.72;;;;;;;16.23;55.79;100064.27;1767643;79;21626;-62
2022/02/24 02:14:46;;;;;;;6.90;5.95;;;;;;;16.20;55.82;100064.66;1756502;80;21109;-63
2022/02/24 02:17:13;;;;;;;6.70;6.03;;;;;;;16.18;55.84;100069.39;1759590;80;21530;-63
2022/02/24 02:19:39;;;;;;;6.20;5.60;;;;;;;16.17;55.85;100077.13;1764363;81;21031;-64
2022/02/24 02:22:06;;;;;;;6.97;5.58;;;;;;;16.15;55.87;100076.98;1740832;81;21542;-63
2022/02/24 02:24:34;;;;;;;6.20;5.60;;;;;;;16.12;55.88;100078.22;1749412;79;21044;-63
2022/02/24 02:27:00;;;;;;;5.87;5.28;;;;;;;16.11;55.89;100084.62;1796965;78;21095;-62
2022/02/24 02:29:28;;;;;;;6.83;5.62;;;;;;;16.09;55.92;100086.66;1796322;79;20974;-62
2022/02/24 02:31:55;;;;;;;6.47;5.85;;;;;;;16.07;55.92;100087.34;1801475;79;21017;-62
2022/02/24 02:34:22;;;;;;;6.55;5.87;;;;;;;16.05;55.93;100094.27;1747425;80;21114;-63
2022/02/24 02:36:48;;;;;;;6.55;5.80;;;;;;;16.04;55.93;100091.25;1735991;81;21509;-62
2022/02/24 02:39:15;;;;;;;6.15;5.55;;;;;;;16.02;55.94;100092.48;1742376;81;21034;-63
2022/02/24 02:41:44;;;;;;;6.28;5.67;;;;;;;16.00;55.97;100095.88;1754570;81;21542;-63
2022/02/24 02:44:12;;;;;;;5.78;5.20;;;;;;;15.99;55.95;100103.58;1761859;81;21542;-63
2022/02/24 02:46:39;;;;;;;6.10;5.50;;;;;;;15.96;55.96;100104.80;1755288;81;21548;-63
2022/02/24 02:49:05;;;;;;;6.28;5.42;;;;;;;15.95;55.99;100106.33;1748784;81;21050;-63
2022/02/24 02:51:32;;;;;;;5.83;5.22;;;;;;;15.92;56.02;100103.02;1750467;80;21076;-63
2022/02/24 02:53:58;;;;;;;6.55;5.95;;;;;;;15.91;56.01;100106.70;1763670;79;21495;-63
2022/02/24 02:56:25;;;;;;;6.33;5.42;;;;;;;15.90;56.03;100115.78;1769680;80;21063;-63
2022/02/24 02:58:51;;;;;;;5.70;5.17;;;;;;;15.88;56.04;100115.16;1764813;80;21121;-62
2022/02/24 03:01:17;;;;;;;6.65;5.65;;;;;;;15.86;56.05;100118.54;1749106;80;21502;-62
2022/02/24 03:03:44;;;;;;;5.83;5.10;;;;;;;15.84;56.06;100117.91;1753226;81;21017;-63
2022/02/24 03:06:10;;;;;;;5.72;5.08;;;;;;;15.83;56.06;100118.91;1762177;81;21038;-63
2022/02/24 03:08:37;;;;;;;6.17;5.30;;;;;;;15.81;56.09;100120.95;1764488;81;21071;-62
2022/02/24 03:11:03;;;;;;;6.65;5.17;;;;;;;15.80;56.11;100121.99;1759714;79;21830;-63
2022/02/24 03:13:30;;;;;;;5.85;5.28;;;;;;;15.79;56.12;100128.36;1749449;81;21066;-63
2022/02/24 03:15:56;;;;;;;6.33;5.37;;;;;;;15.78;56.13;100126.72;1803836;78;21033;-62
2022/02/24 03:18:22;;;;;;;6.15;5.30;;;;;;;15.76;56.12;100126.57;1757618;81;21072;-63
2022/02/24 03:20:49;;;;;;;6.12;5.08;;;;;;;15.75;56.11;100132.97;1760957;81;21035;-65
2022/02/24 03:23:16;;;;;;;5.55;5.05;;;;;;;15.75;56.13;100132.97;1735925;81;21597;-63
2022/02/24 03:25:43;;;;;;;5.35;4.85;;;;;;;15.72;56.14;100128.77;1758899;80;21023;-63
2022/02/24 03:28:09;;;;;;;6.22;4.97;;;;;;;15.71;56.15;100133.83;1746503;81;21572;-64
2022/02/24 03:30:37;;;;;;;7.25;5.53;;;;;;;15.70;56.15;100133.49;1726341;81;21128;-63
2022/02/24 03:33:04;;;;;;;6.12;5.08;;;;;;;15.68;56.16;100131.03;1729312;81;21082;-64
2022/02/24 03:35:31;;;;;;;5.90;5.30;;;;;;;15.66;56.18;100131.70;1735673;81;21140;-64
2022/02/24 03:37:59;;;;;;;5.83;5.30;;;;;;;15.65;56.19;100131.92;1740784;81;22051;-63
2022/02/24 03:40:25;;;;;;;6.75;5.28;;;;;;;15.64;56.20;100133.75;1736563;81;21107;-63
2022/02/24 03:42:52;;;;;;;7.58;5.47;;;;;;;15.63;56.21;100136.13;1752431;80;21535;-63
2022/02/24 03:45:18;;;;;;;6.17;5.12;;;;;;;15.61;56.22;100136.00;1736769;81;21114;-64
2022/02/24 03:47:45;;;;;;;5.53;4.90;;;;;;;15.61;56.21;100140.02;1753268;81;22345;-63
2022/02/24 03:50:13;;;;;;;5.87;5.03;;;;;;;15.60;56.23;100136.49;1748519;81;20995;-64
2022/02/24 03:52:41;;;;;;;5.72;5.00;;;;;;;15.59;56.23;100142.89;1751870;82;21028;-64
2022/02/24 03:55:09;;;;;;;6.00;5.03;;;;;;;15.57;56.24;100134.70;1748031;81;21036;-63
2022/02/24 03:57:36;;;;;;;6.00;5.03;;;;;;;15.57;56.23;100137.38;1741348;81;21084;-63
2022/02/24 04:00:07;;;;;;;6.60;5.17;;;;;;;15.54;56.25;100138.08;1753712;80;21123;-64
2022/02/24 04:02:35;;;;;;;5.25;4.50;;;;;;;15.54;56.25;100139.94;1751657;81;21103;-63
2022/02/24 04:05:02;;;;;;;5.83;5.22;;;;;;;15.53;56.26;100147.16;1736970;81;21293;-62
2022/02/24 04:07:30;;;;;;;6.00;5.20;;;;;;;15.51;56.28;100138.97;1728370;81;21045;-63
2022/02/24 04:09:56;;;;;;;6.25;5.40;;;;;;;15.50;56.29;100141.34;1741971;81;21806;-64
2022/02/24 04:12:23;;;;;;;5.80;5.17;;;;;;;15.50;56.29;100153.39;1731959;81;21220;-63
2022/02/24 04:14:49;;;;;;;5.80;5.20;;;;;;;15.49;56.28;100153.06;1744849;81;22128;-63
2022/02/24 04:17:16;;;;;;;5.22;4.72;;;;;;;15.47;56.30;100154.61;1755168;81;21059;-63
2022/02/24 04:19:42;;;;;;;6.12;5.53;;;;;;;15.46;56.30;100155.62;1752556;81;21620;-64
2022/02/24 04:22:09;;;;;;;5.08;4.58;;;;;;;15.44;56.30;100159.00;1746071;81;21061;-63
2022/02/24 04:24:35;;;;;;;6.17;5.03;;;;;;;15.45;56.32;100165.17;1759454;81;21083;-63
2022/02/24 04:27:03;;;;;;;5.55;4.92;;;;;;;15.44;56.29;100169.70;1756385;81;21042;-63
2022/02/24 04:29:30;;;;;;;6.08;4.50;;;;;;;15.42;56.29;100170.41;1785783;79;21068;-65
2022/02/24 04:31:56;;;;;;;6.03;5.42;;;;;;;15.42;56.29;100173.59;1819038;78;21022;-64
2022/02/24 04:34:23;;;;;;;5.85;5.33;;;;;;;15.41;56.29;100183.97;1802904;78;21116;-65
2022/02/24 04:36:49;;;;;;;5.08;4.58;;;;;;;15.39;56.31;100182.81;1750065;80;21596;-64
2022/02/24 04:39:16;;;;;;;5.87;5.28;;;;;;;15.40;56.30;100193.86;1823897;77;21120;-65
2022/02/24 04:41:42;;;;;;;5.92;5.15;;;;;;;15.38;56.32;100194.56;1820270;78;21014;-65
2022/02/24 04:44:08;;;;;;;5.58;5.00;;;;;;;15.37;56.31;100201.43;1819088;78;20982;-65
2022/02/24 04:46:35;;;;;;;5.60;5.10;;;;;;;15.37;56.30;100204.93;1819520;78;21049;-65
2022/02/24 04:49:01;;;;;;;5.85;5.25;;;;;;;15.36;56.31;100211.32;1815018;78;23294;-66
2022/02/24 04:51:27;;;;;;;5.60;5.05;;;;;;;15.34;56.32;100214.18;1819047;78;21010;-66
2022/02/24 04:53:54;;;;;;;5.28;4.78;;;;;;;15.34;56.30;100219.53;1818993;77;20989;-64
2022/02/24 04:56:20;;;;;;;4.45;4.00;;;;;;;15.33;56.29;100224.55;1822844;77;21033;-72
2022/02/24 04:58:47;;;;;;;5.33;4.83;;;;;;;15.32;56.32;100224.77;1817456;78;21043;-72
2022/02/24 05:01:13;;;;;;;6.00;5.15;;;;;;;15.31;56.34;100227.92;1812439;77;21509;-74
2022/02/24 05:03:39;;;;;;;10.25;6.30;;;;;;;15.30;56.32;100230.30;1819311;78;21061;-76
2022/02/24 05:06:06;;;;;;;10.48;6.15;;;;;;;15.32;60.89;100229.60;1824278;77;21065;-74
2022/02/24 05:08:32;;;;;;;11.63;6.40;;;;;;;15.40;61.15;100240.71;1816677;78;21057;-74
2022/02/24 05:10:59;;;;;;;9.13;5.67;;;;;;;15.46;61.70;100248.50;1801523;78;21552;-73
2022/02/24 05:13:25;;;;;;;10.72;6.58;;;;;;;15.46;61.74;100252.00;1814348;77;21110;-71
2022/02/24 05:15:52;;;;;;;7.10;5.45;;;;;;;15.49;61.58;100257.48;1814622;78;21085;-66
2022/02/24 05:18:21;;;;;;;8.73;5.47;;;;;;;15.50;61.37;100260.49;1807766;77;21002;-65
2022/02/24 05:20:47;;;;;;;10.25;6.37;;;;;;;15.47;61.13;100260.37;1814251;79;21035;-69
2022/02/24 05:23:14;;;;;;;10.38;7.40;;;;;;;15.49;62.68;100273.55;1810966;78;21513;-66
2022/02/24 05:25:40;;;;;;;8.53;6.55;;;;;;;15.59;63.76;100269.23;1807795;78;21107;-67
2022/02/24 05:28:09;;;;;;;9.03;6.90;;;;;;;15.68;63.18;100276.14;1822265;77;21077;-70
2022/02/24 05:30:36;;;;;;;9.60;6.53;;;;;;;15.71;62.92;100276.61;1815278;77;21500;-69
2022/02/24 05:33:03;;;;;;;8.55;6.25;;;;;;;15.73;62.62;100279.13;1836951;77;21002;-70
2022/02/24 05:35:31;;;;;;;10.90;6.47;;;;;;;15.72;62.32;100289.48;1800843;78;21015;-77
2022/02/24 05:37:57;;;;;;;7.75;6.33;;;;;;;15.71;62.03;100283.30;1814037;77;21140;-76
2022/02/24 05:40:24;;;;;;;8.50;6.58;;;;;;;15.71;61.75;100294.53;1812355;79;21045;-67
2022/02/24 05:42:51;;;;;;;13.88;7.72;;;;;;;15.69;61.57;100251.86;1811120;77;21004;-76
2022/02/24 05:45:17;;;;;;;14.28;7.80;;;;;;;15.76;62.28;100293.50;1798931;77;21113;-70
2022/02/24 05:47:44;;;;;;;9.83;7.33;;;;;;;15.89;61.99;100301.66;1749823;80;21048;-69
2022/02/24 05:50:10;;;;;;;10.55;7.70;;;;;;;15.95;61.54;100306.77;1737468;80;21108;-72
2022/02/24 05:52:38;;;;;;;10.65;8.00;;;;;;;15.97;61.12;100307.93;1750724;81;21132;-73
2022/02/24 05:55:05;;;;;;;9.15;7.20;;;;;;;15.97;60.91;100310.61;1749216;81;20983;-69
2022/02/24 05:57:32;;;;;;;10.00;7.85;;;;;;;15.95;60.67;100319.34;1746778;81;21031;-68
2022/02/24 05:59:58;;;;;;;9.03;6.60;;;;;;;15.92;60.47;100322.73;1745796;81;21027;-78
2022/02/24 06:02:25;;;;;;;10.65;7.12;;;;;;;15.90;60.28;100329.30;1737072;81;21196;-70
2022/02/24 06:04:53;;;;;;;10.32;6.95;;;;;;;15.88;60.13;100334.02;1747552;81;21572;-71
2022/02/24 06:07:20;;;;;;;10.93;7.08;;;;;;;15.84;59.97;100332.22;1734218;81;21117;-71
2022/02/24 06:09:48;;;;;;;8.98;7.28;;;;;;;15.82;59.84;100338.77;1728865;81;21036;-73
2022/02/24 06:12:14;;;;;;;8.73;6.95;;;;;;;15.80;59.72;100343.00;1755144;81;21083;-67
2022/02/24 06:14:41;;;;;;;18.17;12.98;;;;;;;15.76;59.64;100341.72;1804518;77;21130;-67
2022/02/24 06:17:08;;;;;;;20.48;12.63;;;;;;;15.77;63.36;100352.73;1784805;78;21033;-65
2022/02/24 06:19:34;;;;;;;13.90;11.83;;;;;;;15.80;63.94;100349.70;1778346;79;21015;-71
2022/02/24 06:22:01;;;;;;;14.55;11.85;;;;;;;15.86;63.20;100357.49;1778726;80;21080;-69
2022/02/24 06:24:28;;;;;;;16.85;13.43;;;;;;;15.93;62.42;100354.36;1774269;80;21093;-66
2022/02/24 06:26:54;;;;;;;17.48;11.70;;;;;;;15.98;62.55;100360.52;1782241;79;21071;-70
2022/02/24 06:29:21;;;;;;;14.20;10.50;;;;;;;16.03;62.83;100262.95;1771148;80;21472;-71
2022/02/24 06:31:47;;;;;;;15.90;10.25;;;;;;;16.11;65.62;100281.09;1781142;79;21015;-71
2022/02/24 06:34:13;;;;;;;14.07;10.63;;;;;;;16.30;67.10;100289.00;1777469;79;21094;-69
2022/02/24 06:36:39;;;;;;;13.90;10.00;;;;;;;16.51;67.85;100292.67;1778395;80;21039;-71
2022/02/24 06:39:06;;;;;;;12.60;9.40;;;;;;;16.74;67.49;100335.89;1773598;80;21208;-69
2022/02/24 06:41:33;;;;;;;12.23;9.25;;;;;;;16.96;68.21;100338.89;1776876;79;21052;-66
2022/02/24 06:44:00;;;;;;;15.53;10.32;;;;;;;17.22;67.65;100377.16;1772516;80;21077;-68
2022/02/24 06:46:26;;;;;;;12.55;9.23;;;;;;;17.42;66.08;100379.14;1778367;80;21521;-71
2022/02/24 06:48:53;;;;;;;11.83;9.30;;;;;;;17.43;65.04;100382.97;1780502;79;21756;-72
2022/02/24 06:51:19;;;;;;;10.50;9.38;;;;;;;17.39;64.29;100388.95;1750636;80;21035;-74
2022/02/24 06:53:46;;;;;;;11.35;9.48;;;;;;;17.33;63.82;100388.40;1777248;80;21012;-72
2022/02/24 06:56:12;;;;;;;12.65;9.95;;;;;;;17.25;63.43;100386.69;1780107;79;21013;-79
2022/02/24 06:58:39;;;;;;;11.18;8.03;;;;;;;17.18;63.23;100392.52;1769671;79;21571;-77
2022/02/24 07:01:05;;;;;;;15.38;9.48;;;;;;;17.08;63.00;100396.89;1740729;80;21009;-73
2022/02/24 07:03:32;;;;;;;10.98;8.60;;;;;;;17.00;62.83;100391.67;1775563;80;21477;-74
2022/02/24 07:05:59;;;;;;;11.28;8.98;;;;;;;16.93;62.67;100394.80;1774863;80;21068;-73
2022/02/24 07:08:26;;;;;;;12.00;9.40;;;;;;;16.86;62.50;100401.44;1769059;80;21044;-75
2022/02/24 07:10:52;;;;;;;9.40;8.48;;;;;;;16.79;62.33;100404.56;1755898;80;21032;-73
2022/02/24 07:13:19;;;;;;;10.90;8.88;;;;;;;16.72;62.18;100409.86;1765968;80;21033;-74
2022/02/24 07:15:46;;;;;;;11.48;9.35;;;;;;;16.66;62.06;100407.42;1782302;77;21604;-75
2022/02/24 07:18:12;;;;;;;10.13;9.13;;;;;;;16.61;61.93;100412.55;1808532;77;21057;-74
2022/02/24 07:20:39;;;;;;;8.93;7.90;;;;;;;16.56;61.81;100416.31;1795049;78;21069;-75
2022/02/24 07:23:05;;;;;;;10.95;7.95;;;;;;;16.50;61.69;100420.58;1795367;79;21003;-74
2022/02/24 07:25:32;;;;;;;11.12;8.30;;;;;;;16.47;61.58;100422.81;1805889;79;21078;-73
2022/02/24 07:27:58;;;;;;;10.05;8.55;;;;;;;16.44;61.47;100430.73;1797188;78;21096;-73
2022/02/24 07:30:24;;;;;;;9.15;8.20;;;;;;;16.41;61.33;100431.62;1801396;78;21504;-73
2022/02/24 07:32:51;;;;;;;10.93;9.13;;;;;;;16.39;61.22;100433.66;1810136;79;21125;-74
2022/02/24 07:35:17;;;;;;;10.50;9.08;;;;;;;16.35;61.10;100435.88;1818160;77;21001;-76
2022/02/24 07:37:44;;;;;;;10.32;7.92;;;;;;;16.34;61.00;100438.75;1807666;77;21028;-66
2022/02/24 07:40:11;;;;;;;12.63;8.08;;;;;;;16.30;60.91;100437.80;1764890;80;21144;-67
2022/02/24 07:42:38;;;;;;;8.80;7.90;;;;;;;16.28;60.81;100444.35;1755320;80;21015;-65
2022/02/24 07:45:07;;;;;;;10.00;8.10;;;;;;;16.25;60.73;100453.61;1757278;80;21062;-67
2022/02/24 07:47:34;;;;;;;9.58;8.13;;;;;;;16.23;60.63;100456.17;1756395;80;21093;-68
2022/02/24 07:50:00;;;;;;;10.48;7.97;;;;;;;16.21;60.54;100452.84;1760383;81;21117;-66
2022/02/24 07:52:27;;;;;;;8.53;7.62;;;;;;;16.18;60.45;100451.35;1757257;80;21101;-68
2022/02/24 07:54:54;;;;;;;9.08;8.18;;;;;;;16.17;60.35;100455.06;1770105;80;21082;-67
2022/02/24 07:57:22;;;;;;;9.30;7.12;;;;;;;16.15;60.29;100457.11;1771911;81;20951;-68
2022/02/24 07:59:49;;;;;;;9.13;7.72;;;;;;;16.12;60.23;100460.97;1772225;81;21074;-68
2022/02/24 08:02:15;;;;;;;8.68;7.70;;;;;;;16.11;60.15;100459.32;1741572;81;21049;-66
2022/02/24 08:04:42;;;;;;;9.35;7.72;;;;;;;16.09;60.06;100464.04;1742229;82;21870;-67
2022/02/24 08:07:08;;;;;;;9.78;7.50;;;;;;;16.07;60.02;100465.22;1742112;82;21069;-67
2022/02/24 08:09:35;;;;;;;7.28;6.58;;;;;;;16.05;59.95;100473.48;1742203;82;21518;-68
2022/02/24 08:14:46;;;;;;;7.80;7.00;;;;;;;16.03;59.83;100478.67;1742191;82;21118;-68
2022/02/24 08:17:14;;;;;;;7.92;7.12;;;;;;;16.00;59.77;100477.73;1750740;80;22356;-69
2022/02/24 08:19:42;;;;;;;7.37;6.45;;;;;;;15.98;59.71;100481.92;1778425;80;21065;-68
2022/02/24 08:22:09;;;;;;;7.17;6.47;;;;;;;15.97;59.65;100482.10;1786796;80;21111;-67
2022/02/24 08:24:35;;;;;;;7.80;6.97;;;;;;;15.96;59.60;100486.64;1767075;80;21014;-69
2022/02/24 08:27:02;;;;;;;9.03;7.12;;;;;;;15.95;59.54;100492.18;1767042;81;21062;-68
2022/02/24 08:29:28;;;;;;;7.75;6.45;;;;;;;15.94;59.50;100493.21;1767200;81;21574;-66
2022/02/24 08:31:55;;;;;;;8.08;6.67;;;;;;;15.90;59.46;100488.20;1778483;80;21569;-67
2022/02/24 08:34:23;;;;;;;8.18;6.65;;;;;;;15.90;59.41;100490.89;1771303;80;21018;-65
2022/02/24 08:36:51;;;;;;;6.92;6.15;;;;;;;15.89;59.36;100492.41;1747792;82;20990;-67
2022/02/24 08:39:23;;;;;;;7.15;6.45;;;;;;;15.87;59.33;100493.92;1747690;82;21017;-68
2022/02/24 08:41:50;;;;;;;7.53;6.55;;;;;;;15.86;59.27;100495.47;1770877;79;21138;-67
2022/02/24 08:44:18;;;;;;;7.75;6.40;;;;;;;15.85;59.26;100496.47;1784217;79;21116;-67
2022/02/24 08:46:44;;;;;;;7.33;6.58;;;;;;;15.84;59.21;100497.48;1778507;80;21017;-68
2022/02/24 08:49:12;;;;;;;7.80;7.00;;;;;;;15.82;59.18;100495.00;1778817;80;21027;-68
2022/02/24 08:51:39;;;;;;;7.15;6.45;;;;;;;15.82;59.15;100497.69;1767190;80;21088;-67
2022/02/24 08:54:06;;;;;;;6.78;5.87;;;;;;;15.80;59.11;100495.70;1747674;82;23257;-68
2022/02/24 08:56:33;;;;;;;6.90;5.80;;;;;;;15.81;59.07;100500.02;1766020;80;21034;-68
2022/02/24 08:58:59;;;;;;;7.17;6.47;;;;;;;15.80;59.03;100501.54;1778454;80;20987;-69
2022/02/24 09:01:26;;;;;;;7.70;6.28;;;;;;;15.78;59.00;100503.57;1778527;80;21007;-67
2022/02/24 09:03:52;;;;;;;7.72;6.85;;;;;;;15.78;58.97;100503.09;1778711;80;21624;-68
2022/02/24 09:06:19;;;;;;;7.35;6.42;;;;;;;15.77;58.94;100504.09;1778376;80;21140;-70
2022/02/24 09:08:45;;;;;;;7.65;6.87;;;;;;;15.76;58.92;100498.42;1766055;80;21022;-67
2022/02/24 09:11:12;;;;;;;7.28;6.58;;;;;;;15.75;58.88;100504.78;1747716;82;21054;-67
2022/02/24 09:13:41;;;;;;;6.92;6.05;;;;;;;15.75;58.87;100498.09;1747581;82;21029;-67
2022/02/24 09:16:08;;;;;;;6.67;5.95;;;;;;;15.74;58.86;100499.09;1747577;82;21120;-67
2022/02/24 09:18:36;;;;;;;7.17;6.47;;;;;;;15.74;58.80;100504.44;1748057;79;21155;-68
2022/02/24 09:21:02;;;;;;;8.63;6.28;;;;;;;15.73;58.80;100508.98;1752769;80;21098;-67
2022/02/24 09:23:30;;;;;;;6.60;5.92;;;;;;;15.73;58.76;100504.95;1747770;82;21097;-66
2022/02/24 09:25:56;;;;;;;7.03;5.95;;;;;;;15.73;58.75;100509.49;1763698;80;21502;-68
2022/02/24 09:28:22;;;;;;;6.47;5.87;;;;;;;15.71;58.71;100506.95;1794200;79;21076;-67
2022/02/24 09:30:49;;;;;;;6.08;5.47;;;;;;;15.71;58.70;100504.80;1781276;80;21170;-67
2022/02/24 09:33:15;;;;;;;6.60;5.87;;;;;;;15.70;58.69;100503.97;1781199;80;21002;-67
2022/02/24 09:35:42;;;;;;;6.78;5.95;;;;;;;15.70;58.66;100508.47;1781540;80;21017;-67
2022/02/24 09:38:08;;;;;;;6.58;5.83;;;;;;;15.70;58.63;100507.14;1781464;80;21034;-67
2022/02/24 09:40:35;;;;;;;6.60;5.92;;;;;;;15.70;58.61;100509.33;1781524;80;21029;-68
2022/02/24 09:43:04;;;;;;;8.55;5.80;;;;;;;15.69;58.57;100505.48;1771857;80;21126;-67
2022/02/24 09:45:30;;;;;;;6.22;5.58;;;;;;;15.69;58.55;100506.83;1820642;78;21351;-66
2022/02/24 09:47:57;;;;;;;6.30;5.65;;;;;;;15.64;58.51;100497.98;1825148;77;21006;-67
2022/02/24 09:50:26;;;;;;;6.28;5.65;;;;;;;15.67;58.49;100502.16;1774605;80;21006;-68
2022/02/24 09:52:52;;;;;;;5.62;5.08;;;;;;;15.66;58.46;100499.14;1788210;79;21485;-67
2022/02/24 09:55:19;;;;;;;6.05;5.37;;;;;;;15.66;58.45;100501.82;1787970;80;21125;-68
2022/02/24 09:57:45;;;;;;;5.97;5.37;;;;;;;15.65;58.42;100500.17;1803682;78;21030;-68
2022/02/24 10:00:13;;;;;;;5.47;4.97;;;;;;;15.65;58.41;100505.02;1801649;78;21006;-67
2022/02/24 10:02:40;;;;;;;6.22;5.40;;;;;;;15.64;58.38;100509.21;1788352;80;20986;-68
2022/02/24 10:05:12;;;;;;;6.70;6.03;;;;;;;15.63;58.34;100503.03;1788127;80;21611;-66
2022/02/24 10:07:40;;;;;;;6.20;5.30;;;;;;;15.63;58.32;100507.56;1788242;80;21115;-68
2022/02/24 10:10:34;;;;;;;5.65;4.92;;;;;;;15.62;58.32;100504.03;1787963;80;21041;-66
2022/02/24 10:13:13;;;;;;;5.42;4.92;;;;;;;15.62;58.29;100503.20;1788317;79;21074;-68
2022/02/24 10:15:45;;;;;;;5.35;4.85;;;;;;;15.61;58.29;100504.23;1788035;79;21037;-66
2022/02/24 10:18:17;;;;;;;5.60;5.10;;;;;;;15.59;58.29;100505.75;1803953;78;20982;-67
2022/02/24 10:20:52;;;;;;;5.20;4.67;;;;;;;15.58;58.29;100508.09;1825802;78;21226;-65
2022/02/24 10:23:20;;;;;;;6.17;5.55;;;;;;;15.57;58.30;100506.92;1825732;78;21033;-66
2022/02/24 10:25:50;;;;;;;5.97;5.37;;;;;;;15.57;58.27;100506.45;1825804;78;21069;-67
2022/02/24 10:28:45;;;;;;;5.80;5.20;;;;;;;15.57;58.25;100508.27;1826199;78;21041;-67
2022/02/24 10:31:16;;;;;;;5.97;5.15;;;;;;;15.56;58.25;100503.94;1830847;77;21177;-68
2022/02/24 10:33:51;;;;;;;5.00;4.50;;;;;;;15.56;58.21;100505.28;1823594;77;21203;-67
2022/02/24 10:36:23;;;;;;;5.78;5.25;;;;;;;15.54;58.20;100499.59;1793160;80;20970;-68
2022/02/24 10:39:12;;;;;;;5.53;5.03;;;;;;;15.53;58.20;100497.94;1793426;79;21006;-68
2022/02/24 10:41:41;;;;;;;4.87;4.42;;;;;;;15.52;58.17;100498.94;1793433;79;21502;-66
2022/02/24 10:44:24;;;;;;;5.45;4.92;;;;;;;15.52;58.16;100495.44;1820909;78;21006;-69
2022/02/24 10:47:07;;;;;;;5.58;4.85;;;;;;;15.50;58.15;100498.29;1825951;78;21189;-68
2022/02/24 10:49:40;;;;;;;5.67;5.17;;;;;;;15.50;58.14;100495.61;1825895;78;21073;-67
2022/02/24 10:52:19;;;;;;;5.42;4.90;;;;;;;15.49;58.13;100494.45;1794629;78;21303;-68
2022/02/24 10:55:06;;;;;;;5.62;4.87;;;;;;;15.48;58.13;100499.50;1840711;77;21061;-67
2022/02/24 10:57:33;;;;;;;4.70;4.20;;;;;;;15.48;58.12;100503.52;1793364;79;21565;-68
2022/02/24 10:59:59;;;;;;;5.67;5.08;;;;;;;15.46;58.06;100500.19;1793223;80;21156;-68
2022/02/24 11:02:27;;;;;;;4.95;4.40;;;;;;;15.46;58.06;100502.34;1793281;80;21082;-67
2022/02/24 11:04:53;;;;;;;5.25;4.47;;;;;;;15.45;58.05;100498.50;1793803;80;21017;-69
2022/02/24 11:07:22;;;;;;;5.42;4.92;;;;;;;15.45;58.02;100499.84;1800624;78;21009;-68
2022/02/24 11:09:48;;;;;;;5.08;4.37;;;;;;;15.44;58.00;100500.36;1825779;78;21033;-67
2022/02/24 11:12:16;;;;;;;4.80;4.40;;;;;;;15.42;57.99;100495.70;1826125;78;21103;-68
2022/02/24 11:14:49;;;;;;;5.30;4.80;;;;;;;15.42;57.97;100502.39;1825830;78;20986;-67
2022/02/24 11:17:12;;;;;;;5.05;4.55;;;;;;;15.41;57.95;100494.53;1823485;78;21058;-67
2022/02/24 11:19:40;;;;;;;5.00;4.50;;;;;;;15.41;57.92;100492.68;1814605;79;21518;-67
2022/02/24 11:22:07;;;;;;;5.00;4.55;;;;;;;15.41;57.91;100499.38;1814476;79;21081;-66
2022/02/24 11:24:34;;;;;;;4.37;3.98;;;;;;;15.40;57.89;100498.23;1804496;78;22408;-69
2022/02/24 11:27:22;;;;;;;4.78;4.20;;;;;;;15.40;57.89;100498.23;1782337;80;21061;-67
2022/02/24 11:30:05;;;;;;;4.55;4.15;;;;;;;15.39;57.84;100493.37;1782821;79;21009;-67